Terminal Aerodrome Forecast
Issued by NWS Sterling, VA

Current Version | Previous Version | Graphics & Text | Print | Product List | Glossary On
Versions: 1 2 3 4 5 6 7 8 9 10 11 12 13 14 15 16 17 18 19 20 21 22 23 24 25 26 27 28 29 30 31
874
FTUS41 KLWX 022339 AAD
TAFIAD
TAF AMD
KIAD 022339Z 0300/0406 13006KT 3SM -TSRA OVC040CB
      TEMPO 0300/0301 VRB20KT 2SM TSRA
     FM030200 VRB03KT 3SM SHRA VCTS OVC050CB
     FM031200 34006KT P6SM -SHRA OVC008
     FM031600 35005KT P6SM -SHRA OVC015
     FM031800 36004KT P6SM BKN015
     FM032000 01005KT P6SM BKN025
     FM040300 VRB03KT P6SM BKN015=

USA.gov is the U.S. government's official web portal to all federal, state and local government web resources and services.